sensor_id;sensor_type;location;lat;lon;timestamp;temperature;humidity
33093;DHT22;19456;46.104;12.908;2024-01-10T00:00:22;1.50;99.90
33093;DHT22;19456;46.104;12.908;2024-01-10T00:02:48;1.30;99.90
33093;DHT22;19456;46.104;12.908;2024-01-10T00:05:13;1.30;99.90
33093;DHT22;19456;46.104;12.908;2024-01-10T00:07:39;1.10;99.90
33093;DHT22;19456;46.104;12.908;2024-01-10T00:10:05;1.00;99.90
33093;DHT22;19456;46.104;12.908;2024-01-10T00:12:30;1.10;99.90
33093;DHT22;19456;46.104;12.908;2024-01-10T00:15:00;1.10;99.90
33093;DHT22;19456;46.104;12.908;2024-01-10T00:17:26;1.10;99.90
33093;DHT22;19456;46.104;12.908;2024-01-10T00:19:51;1.10;99.90
33093;DHT22;19456;46.104;12.908;2024-01-10T00:22:17;1.30;99.90
33093;DHT22;19456;46.104;12.908;2024-01-10T00:24:42;1.50;99.90
33093;DHT22;19456;46.104;12.908;2024-01-10T00:27:08;1.40;99.90
33093;DHT22;19456;46.104;12.908;2024-01-10T00:29:35;1.30;99.90
33093;DHT22;19456;46.104;12.908;2024-01-10T00:32:00;1.30;99.90
33093;DHT22;19456;46.104;12.908;2024-01-10T00:34:26;1.30;99.90
33093;DHT22;19456;46.104;12.908;2024-01-10T00:36:52;0.90;99.90
33093;DHT22;19456;46.104;12.908;2024-01-10T00:39:17;0.60;99.90
33093;DHT22;19456;46.104;12.908;2024-01-10T00:41:43;0.50;99.90
33093;DHT22;19456;46.104;12.908;2024-01-10T00:44:08;0.50;99.90
33093;DHT22;19456;46.104;12.908;2024-01-10T00:46:34;0.50;99.90
33093;DHT22;19456;46.104;12.908;2024-01-10T00:49:00;0.60;99.90
33093;DHT22;19456;46.104;12.908;2024-01-10T00:51:25;0.60;99.90
33093;DHT22;19456;46.104;12.908;2024-01-10T00:53:51;0.70;99.90
33093;DHT22;19456;46.104;12.908;2024-01-10T00:56:16;0.70;99.90
33093;DHT22;19456;46.104;12.908;2024-01-10T00:58:42;0.70;99.90
33093;DHT22;19456;46.104;12.908;2024-01-10T01:01:07;0.80;99.90
33093;DHT22;19456;46.104;12.908;2024-01-10T01:03:33;0.90;99.90
33093;DHT22;19456;46.104;12.908;2024-01-10T01:05:59;1.00;99.90
33093;DHT22;19456;46.104;12.908;2024-01-10T01:08:24;1.20;99.90
33093;DHT22;19456;46.104;12.908;2024-01-10T01:10:50;1.50;99.90
33093;DHT22;19456;46.104;12.908;2024-01-10T01:13:16;1.50;99.90
33093;DHT22;19456;46.104;12.908;2024-01-10T01:15:41;1.50;99.90
33093;DHT22;19456;46.104;12.908;2024-01-10T01:18:07;1.50;99.90
33093;DHT22;19456;46.104;12.908;2024-01-10T01:20:35;1.70;99.90
33093;DHT22;19456;46.104;12.908;2024-01-10T01:23:02;1.80;99.90
33093;DHT22;19456;46.104;12.908;2024-01-10T01:25:28;1.90;99.90
33093;DHT22;19456;46.104;12.908;2024-01-10T01:27:53;1.90;99.90
33093;DHT22;19456;46.104;12.908;2024-01-10T01:30:19;1.90;99.90
33093;DHT22;19456;46.104;12.908;2024-01-10T01:32:47;1.90;99.90
33093;DHT22;19456;46.104;12.908;2024-01-10T01:35:12;1.90;99.90
33093;DHT22;19456;46.104;12.908;2024-01-10T01:37:38;1.90;99.90
33093;DHT22;19456;46.104;12.908;2024-01-10T01:40:04;1.80;99.90
33093;DHT22;19456;46.104;12.908;2024-01-10T01:42:29;1.70;99.90
33093;DHT22;19456;46.104;12.908;2024-01-10T01:44:55;1.60;99.90
33093;DHT22;19456;46.104;12.908;2024-01-10T01:47:20;1.60;99.90
33093;DHT22;19456;46.104;12.908;2024-01-10T01:49:47;1.60;99.90
33093;DHT22;19456;46.104;12.908;2024-01-10T01:52:12;1.60;99.90
33093;DHT22;19456;46.104;12.908;2024-01-10T01:54:38;1.70;99.90
33093;DHT22;19456;46.104;12.908;2024-01-10T01:57:04;1.60;99.90
33093;DHT22;19456;46.104;12.908;2024-01-10T01:59:30;1.70;99.90
33093;DHT22;19456;46.104;12.908;2024-01-10T02:01:56;1.70;99.90
33093;DHT22;19456;46.104;12.908;2024-01-10T02:04:22;1.70;99.90
33093;DHT22;19456;46.104;12.908;2024-01-10T02:06:48;1.70;99.90
33093;DHT22;19456;46.104;12.908;2024-01-10T02:09:14;1.60;99.90
33093;DHT22;19456;46.104;12.908;2024-01-10T02:11:39;1.60;99.90
33093;DHT22;19456;46.104;12.908;2024-01-10T02:14:05;1.50;99.90
33093;DHT22;19456;46.104;12.908;2024-01-10T02:16:31;1.30;99.90
33093;DHT22;19456;46.104;12.908;2024-01-10T02:18:56;1.20;99.90
33093;DHT22;19456;46.104;12.908;2024-01-10T02:21:22;1.20;99.90
33093;DHT22;19456;46.104;12.908;2024-01-10T02:23:48;1.20;99.90
33093;DHT22;19456;46.104;12.908;2024-01-10T02:26:14;1.20;99.90
33093;DHT22;19456;46.104;12.908;2024-01-10T02:28:40;1.10;99.90
33093;DHT22;19456;46.104;12.908;2024-01-10T02:31:05;1.10;99.90
33093;DHT22;19456;46.104;12.908;2024-01-10T02:33:32;1.10;99.90
33093;DHT22;19456;46.104;12.908;2024-01-10T02:35:58;1.20;99.90
33093;DHT22;19456;46.104;12.908;2024-01-10T02:38:23;1.30;99.90
33093;DHT22;19456;46.104;12.908;2024-01-10T02:40:49;1.20;99.90
33093;DHT22;19456;46.104;12.908;2024-01-10T02:43:15;1.10;99.90
33093;DHT22;19456;46.104;12.908;2024-01-10T02:45:41;1.00;99.90
33093;DHT22;19456;46.104;12.908;2024-01-10T02:48:06;1.00;99.90
33093;DHT22;19456;46.104;12.908;2024-01-10T02:50:32;0.90;99.90
33093;DHT22;19456;46.104;12.908;2024-01-10T02:52:58;1.00;99.90
33093;DHT22;19456;46.104;12.908;2024-01-10T02:55:23;0.50;99.90
33093;DHT22;19456;46.104;12.908;2024-01-10T02:57:49;0.10;99.90
33093;DHT22;19456;46.104;12.908;2024-01-10T03:00:14;-0.10;99.90
33093;DHT22;19456;46.104;12.908;2024-01-10T03:02:41;-0.20;99.90
33093;DHT22;19456;46.104;12.908;2024-01-10T03:05:07;-0.30;99.90
33093;DHT22;19456;46.104;12.908;2024-01-10T03:07:33;-0.20;99.90
33093;DHT22;19456;46.104;12.908;2024-01-10T03:09:58;-0.10;99.90
33093;DHT22;19456;46.104;12.908;2024-01-10T03:12:24;-0.10;99.90
33093;DHT22;19456;46.104;12.908;2024-01-10T03:14:50;0.00;99.90
33093;DHT22;19456;46.104;12.908;2024-01-10T03:17:15;-0.20;99.90
33093;DHT22;19456;46.104;12.908;2024-01-10T03:19:41;-0.40;99.90
33093;DHT22;19456;46.104;12.908;2024-01-10T03:22:09;-0.30;99.90
33093;DHT22;19456;46.104;12.908;2024-01-10T03:24:35;-0.30;99.90
33093;DHT22;19456;46.104;12.908;2024-01-10T03:27:01;-0.30;99.90
33093;DHT22;19456;46.104;12.908;2024-01-10T03:29:29;-0.20;99.90
33093;DHT22;19456;46.104;12.908;2024-01-10T03:31:54;-0.40;99.90
33093;DHT22;19456;46.104;12.908;2024-01-10T03:34:20;-0.50;99.90
33093;DHT22;19456;46.104;12.908;2024-01-10T03:36:45;-0.50;99.90
33093;DHT22;19456;46.104;12.908;2024-01-10T03:39:11;-0.40;99.90
33093;DHT22;19456;46.104;12.908;2024-01-10T03:41:36;-0.30;99.90
33093;DHT22;19456;46.104;12.908;2024-01-10T03:44:02;-0.30;99.90
33093;DHT22;19456;46.104;12.908;2024-01-10T03:46:28;-0.30;99.90
33093;DHT22;19456;46.104;12.908;2024-01-10T03:48:53;0.00;99.90
33093;DHT22;19456;46.104;12.908;2024-01-10T03:51:19;0.00;99.90
33093;DHT22;19456;46.104;12.908;2024-01-10T03:53:45;0.10;99.90
33093;DHT22;19456;46.104;12.908;2024-01-10T03:56:11;0.30;99.90
33093;DHT22;19456;46.104;12.908;2024-01-10T03:58:37;0.70;99.90
33093;DHT22;19456;46.104;12.908;2024-01-10T04:01:06;0.70;99.90
33093;DHT22;19456;46.104;12.908;2024-01-10T04:03:32;0.60;99.90
33093;DHT22;19456;46.104;12.908;2024-01-10T04:05:58;0.40;99.90
33093;DHT22;19456;46.104;12.908;2024-01-10T04:08:23;0.30;99.90
33093;DHT22;19456;46.104;12.908;2024-01-10T04:10:49;0.20;99.90
33093;DHT22;19456;46.104;12.908;2024-01-10T04:13:15;0.10;99.90
33093;DHT22;19456;46.104;12.908;2024-01-10T04:15:40;0.10;99.90
33093;DHT22;19456;46.104;12.908;2024-01-10T04:18:06;-0.20;99.90
33093;DHT22;19456;46.104;12.908;2024-01-10T04:20:32;-0.30;99.90
33093;DHT22;19456;46.104;12.908;2024-01-10T04:22:57;-0.30;99.90
33093;DHT22;19456;46.104;12.908;2024-01-10T04:25:23;-0.50;99.90
33093;DHT22;19456;46.104;12.908;2024-01-10T04:27:48;-0.70;99.90
33093;DHT22;19456;46.104;12.908;2024-01-10T04:30:15;-0.50;99.90
33093;DHT22;19456;46.104;12.908;2024-01-10T04:32:41;-0.50;99.90
33093;DHT22;19456;46.104;12.908;2024-01-10T04:35:07;-0.70;99.90
33093;DHT22;19456;46.104;12.908;2024-01-10T04:37:32;-0.80;99.90
33093;DHT22;19456;46.104;12.908;2024-01-10T04:39:58;-0.80;99.90
33093;DHT22;19456;46.104;12.908;2024-01-10T04:42:23;-0.70;99.90
33093;DHT22;19456;46.104;12.908;2024-01-10T04:44:49;-0.60;99.90
33093;DHT22;19456;46.104;12.908;2024-01-10T04:47:16;-0.40;99.90
33093;DHT22;19456;46.104;12.908;2024-01-10T04:49:42;-0.20;99.90
33093;DHT22;19456;46.104;12.908;2024-01-10T04:52:07;0.00;99.90
33093;DHT22;19456;46.104;12.908;2024-01-10T04:54:33;0.00;99.90
33093;DHT22;19456;46.104;12.908;2024-01-10T04:56:59;0.00;99.90
33093;DHT22;19456;46.104;12.908;2024-01-10T04:59:24;0.20;99.90
33093;DHT22;19456;46.104;12.908;2024-01-10T05:01:50;0.40;99.90
33093;DHT22;19456;46.104;12.908;2024-01-10T05:04:16;0.60;99.90
33093;DHT22;19456;46.104;12.908;2024-01-10T05:06:41;0.70;99.90
33093;DHT22;19456;46.104;12.908;2024-01-10T05:09:07;0.80;99.90
33093;DHT22;19456;46.104;12.908;2024-01-10T05:11:32;0.80;99.90
33093;DHT22;19456;46.104;12.908;2024-01-10T05:14:01;0.70;99.90
33093;DHT22;19456;46.104;12.908;2024-01-10T05:16:26;0.60;99.90
33093;DHT22;19456;46.104;12.908;2024-01-10T05:18:52;0.40;99.90
33093;DHT22;19456;46.104;12.908;2024-01-10T05:21:17;0.10;99.90
33093;DHT22;19456;46.104;12.908;2024-01-10T05:23:43;0.00;99.90
33093;DHT22;19456;46.104;12.908;2024-01-10T05:26:08;-0.20;99.90
33093;DHT22;19456;46.104;12.908;2024-01-10T05:28:34;-0.30;99.90
33093;DHT22;19456;46.104;12.908;2024-01-10T05:31:00;-0.40;99.90
33093;DHT22;19456;46.104;12.908;2024-01-10T05:33:25;-0.30;99.90
33093;DHT22;19456;46.104;12.908;2024-01-10T05:35:51;-0.40;99.90
33093;DHT22;19456;46.104;12.908;2024-01-10T05:38:17;-0.50;99.90
33093;DHT22;19456;46.104;12.908;2024-01-10T05:40:42;-0.50;99.90
33093;DHT22;19456;46.104;12.908;2024-01-10T05:43:08;-0.50;99.90
33093;DHT22;19456;46.104;12.908;2024-01-10T05:45:35;-0.30;99.90
33093;DHT22;19456;46.104;12.908;2024-01-10T05:48:01;-0.20;99.90
33093;DHT22;19456;46.104;12.908;2024-01-10T05:50:28;-0.10;99.90
33093;DHT22;19456;46.104;12.908;2024-01-10T05:52:53;0.00;99.90
33093;DHT22;19456;46.104;12.908;2024-01-10T05:55:19;0.00;99.90
33093;DHT22;19456;46.104;12.908;2024-01-10T05:57:44;0.00;99.90
33093;DHT22;19456;46.104;12.908;2024-01-10T06:00:10;0.10;99.90
33093;DHT22;19456;46.104;12.908;2024-01-10T06:02:36;0.10;99.90
33093;DHT22;19456;46.104;12.908;2024-01-10T06:05:10;0.10;99.90
33093;DHT22;19456;46.104;12.908;2024-01-10T06:07:38;0.10;99.90
33093;DHT22;19456;46.104;12.908;2024-01-10T06:10:05;0.10;99.90
33093;DHT22;19456;46.104;12.908;2024-01-10T06:12:30;0.10;99.90
33093;DHT22;19456;46.104;12.908;2024-01-10T06:14:56;0.20;99.90
33093;DHT22;19456;46.104;12.908;2024-01-10T06:17:22;0.20;99.90
33093;DHT22;19456;46.104;12.908;2024-01-10T06:19:48;0.20;99.90
33093;DHT22;19456;46.104;12.908;2024-01-10T06:22:14;0.40;99.90
33093;DHT22;19456;46.104;12.908;2024-01-10T06:24:40;0.20;99.90
33093;DHT22;19456;46.104;12.908;2024-01-10T06:27:08;0.10;99.90
33093;DHT22;19456;46.104;12.908;2024-01-10T06:29:36;-0.30;99.90
33093;DHT22;19456;46.104;12.908;2024-01-10T06:32:02;-0.70;99.90
33093;DHT22;19456;46.104;12.908;2024-01-10T06:34:28;-0.80;99.90
33093;DHT22;19456;46.104;12.908;2024-01-10T06:36:53;-0.80;99.90
33093;DHT22;19456;46.104;12.908;2024-01-10T06:39:19;-0.50;99.90
33093;DHT22;19456;46.104;12.908;2024-01-10T06:41:48;-0.40;99.90
33093;DHT22;19456;46.104;12.908;2024-01-10T06:44:14;-0.20;99.90
33093;DHT22;19456;46.104;12.908;2024-01-10T06:46:40;-0.20;99.90
33093;DHT22;19456;46.104;12.908;2024-01-10T06:49:05;-0.20;99.90
33093;DHT22;19456;46.104;12.908;2024-01-10T06:51:32;-0.10;99.90
33093;DHT22;19456;46.104;12.908;2024-01-10T06:53:58;0.10;99.90
33093;DHT22;19456;46.104;12.908;2024-01-10T06:56:32;0.20;99.90
33093;DHT22;19456;46.104;12.908;2024-01-10T06:59:01;0.40;99.90
33093;DHT22;19456;46.104;12.908;2024-01-10T07:01:27;0.30;99.90
33093;DHT22;19456;46.104;12.908;2024-01-10T07:03:53;0.30;99.90
33093;DHT22;19456;46.104;12.908;2024-01-10T07:06:26;0.20;99.90
33093;DHT22;19456;46.104;12.908;2024-01-10T07:08:59;0.30;99.90
33093;DHT22;19456;46.104;12.908;2024-01-10T07:11:28;0.30;99.90
33093;DHT22;19456;46.104;12.908;2024-01-10T07:16:58;-0.20;99.90
33093;DHT22;19456;46.104;12.908;2024-01-10T07:19:27;-0.40;99.90
33093;DHT22;19456;46.104;12.908;2024-01-10T07:22:13;-0.50;99.90
33093;DHT22;19456;46.104;12.908;2024-01-10T07:24:39;-0.40;99.90
33093;DHT22;19456;46.104;12.908;2024-01-10T07:27:05;-0.20;99.90
33093;DHT22;19456;46.104;12.908;2024-01-10T07:29:35;0.00;99.90
33093;DHT22;19456;46.104;12.908;2024-01-10T07:32:03;0.10;99.90
33093;DHT22;19456;46.104;12.908;2024-01-10T07:34:30;0.20;99.90
33093;DHT22;19456;46.104;12.908;2024-01-10T07:36:56;0.30;99.90
33093;DHT22;19456;46.104;12.908;2024-01-10T07:39:24;0.40;99.90
33093;DHT22;19456;46.104;12.908;2024-01-10T07:41:50;0.50;99.90
33093;DHT22;19456;46.104;12.908;2024-01-10T07:44:17;0.60;99.90
33093;DHT22;19456;46.104;12.908;2024-01-10T07:46:43;0.50;99.90
33093;DHT22;19456;46.104;12.908;2024-01-10T07:49:09;0.40;99.90
33093;DHT22;19456;46.104;12.908;2024-01-10T07:51:36;0.50;99.90
33093;DHT22;19456;46.104;12.908;2024-01-10T07:54:02;0.60;99.90
33093;DHT22;19456;46.104;12.908;2024-01-10T07:56:28;0.60;99.90
33093;DHT22;19456;46.104;12.908;2024-01-10T07:58:55;0.80;99.90
33093;DHT22;19456;46.104;12.908;2024-01-10T08:01:22;0.90;99.90
33093;DHT22;19456;46.104;12.908;2024-01-10T08:03:48;0.80;99.90
33093;DHT22;19456;46.104;12.908;2024-01-10T08:06:14;0.80;99.90
33093;DHT22;19456;46.104;12.908;2024-01-10T08:08:48;0.80;99.90
33093;DHT22;19456;46.104;12.908;2024-01-10T08:11:14;0.80;99.90
33093;DHT22;19456;46.104;12.908;2024-01-10T08:13:40;0.80;99.90
33093;DHT22;19456;46.104;12.908;2024-01-10T08:16:06;0.70;99.90
33093;DHT22;19456;46.104;12.908;2024-01-10T08:18:34;0.60;99.90
33093;DHT22;19456;46.104;12.908;2024-01-10T08:21:00;0.70;99.90
33093;DHT22;19456;46.104;12.908;2024-01-10T08:23:26;0.70;99.90
33093;DHT22;19456;46.104;12.908;2024-01-10T08:25:52;0.80;99.90
33093;DHT22;19456;46.104;12.908;2024-01-10T08:28:19;0.90;99.90
33093;DHT22;19456;46.104;12.908;2024-01-10T08:30:45;0.90;99.90
33093;DHT22;19456;46.104;12.908;2024-01-10T08:33:11;0.90;99.90
33093;DHT22;19456;46.104;12.908;2024-01-10T08:35:38;1.00;99.90
33093;DHT22;19456;46.104;12.908;2024-01-10T08:38:05;1.10;99.90
33093;DHT22;19456;46.104;12.908;2024-01-10T08:40:33;1.20;99.90
33093;DHT22;19456;46.104;12.908;2024-01-10T08:43:00;1.30;99.90
33093;DHT22;19456;46.104;12.908;2024-01-10T08:45:26;1.40;99.90
33093;DHT22;19456;46.104;12.908;2024-01-10T08:47:52;1.50;99.90
33093;DHT22;19456;46.104;12.908;2024-01-10T08:50:19;1.60;99.90
33093;DHT22;19456;46.104;12.908;2024-01-10T08:52:45;1.80;99.90
33093;DHT22;19456;46.104;12.908;2024-01-10T08:55:11;1.90;99.90
33093;DHT22;19456;46.104;12.908;2024-01-10T08:57:39;2.20;99.90
33093;DHT22;19456;46.104;12.908;2024-01-10T09:00:05;2.30;99.90
33093;DHT22;19456;46.104;12.908;2024-01-10T09:02:32;2.30;99.90
33093;DHT22;19456;46.104;12.908;2024-01-10T09:05:01;2.40;99.90
33093;DHT22;19456;46.104;12.908;2024-01-10T09:07:31;2.40;99.90
33093;DHT22;19456;46.104;12.908;2024-01-10T09:09:57;2.60;99.90
33093;DHT22;19456;46.104;12.908;2024-01-10T09:12:24;2.60;99.90
33093;DHT22;19456;46.104;12.908;2024-01-10T09:14:53;2.80;99.90
33093;DHT22;19456;46.104;12.908;2024-01-10T09:17:19;2.90;99.90
33093;DHT22;19456;46.104;12.908;2024-01-10T09:19:46;2.90;99.90
33093;DHT22;19456;46.104;12.908;2024-01-10T09:22:17;3.10;99.90
33093;DHT22;19456;46.104;12.908;2024-01-10T09:24:45;3.20;99.90
33093;DHT22;19456;46.104;12.908;2024-01-10T09:27:11;3.30;99.90
33093;DHT22;19456;46.104;12.908;2024-01-10T09:29:37;3.40;99.90
33093;DHT22;19456;46.104;12.908;2024-01-10T09:32:03;3.40;99.90
33093;DHT22;19456;46.104;12.908;2024-01-10T09:34:29;3.50;99.90
33093;DHT22;19456;46.104;12.908;2024-01-10T09:36:59;3.60;99.90
33093;DHT22;19456;46.104;12.908;2024-01-10T09:39:25;3.80;99.90
33093;DHT22;19456;46.104;12.908;2024-01-10T09:41:54;3.90;99.90
33093;DHT22;19456;46.104;12.908;2024-01-10T09:44:20;4.00;99.90
33093;DHT22;19456;46.104;12.908;2024-01-10T09:46:49;4.20;99.90
33093;DHT22;19456;46.104;12.908;2024-01-10T09:49:17;4.20;99.90
33093;DHT22;19456;46.104;12.908;2024-01-10T09:51:46;4.30;99.90
33093;DHT22;19456;46.104;12.908;2024-01-10T09:54:13;4.40;99.90
33093;DHT22;19456;46.104;12.908;2024-01-10T09:56:42;4.60;99.90
33093;DHT22;19456;46.104;12.908;2024-01-10T09:59:08;4.80;99.90
33093;DHT22;19456;46.104;12.908;2024-01-10T10:01:42;4.80;99.90
33093;DHT22;19456;46.104;12.908;2024-01-10T10:04:09;4.70;99.90
33093;DHT22;19456;46.104;12.908;2024-01-10T10:06:37;4.70;99.90
33093;DHT22;19456;46.104;12.908;2024-01-10T10:09:03;4.80;99.90
33093;DHT22;19456;46.104;12.908;2024-01-10T10:11:30;5.00;99.90
33093;DHT22;19456;46.104;12.908;2024-01-10T10:13:59;5.10;99.90
33093;DHT22;19456;46.104;12.908;2024-01-10T10:16:39;5.10;99.90
33093;DHT22;19456;46.104;12.908;2024-01-10T10:19:07;5.00;99.90
33093;DHT22;19456;46.104;12.908;2024-01-10T10:21:35;5.00;99.90
33093;DHT22;19456;46.104;12.908;2024-01-10T10:24:01;5.00;99.90
33093;DHT22;19456;46.104;12.908;2024-01-10T10:26:31;5.00;99.90
33093;DHT22;19456;46.104;12.908;2024-01-10T10:28:59;5.10;99.90
33093;DHT22;19456;46.104;12.908;2024-01-10T10:31:25;5.10;99.90
33093;DHT22;19456;46.104;12.908;2024-01-10T10:33:52;5.20;99.90
33093;DHT22;19456;46.104;12.908;2024-01-10T10:36:20;5.30;99.90
33093;DHT22;19456;46.104;12.908;2024-01-10T10:38:47;5.30;99.90
33093;DHT22;19456;46.104;12.908;2024-01-10T10:41:16;5.30;99.90
33093;DHT22;19456;46.104;12.908;2024-01-10T10:43:42;5.40;99.90
33093;DHT22;19456;46.104;12.908;2024-01-10T10:46:08;5.40;99.90
33093;DHT22;19456;46.104;12.908;2024-01-10T10:48:40;5.40;99.90
33093;DHT22;19456;46.104;12.908;2024-01-10T10:51:10;5.50;99.90
33093;DHT22;19456;46.104;12.908;2024-01-10T10:53:39;5.60;99.90
33093;DHT22;19456;46.104;12.908;2024-01-10T10:56:11;5.90;99.90
33093;DHT22;19456;46.104;12.908;2024-01-10T10:58:41;6.00;99.90
33093;DHT22;19456;46.104;12.908;2024-01-10T11:01:11;6.00;99.90
33093;DHT22;19456;46.104;12.908;2024-01-10T11:03:41;6.20;99.90
33093;DHT22;19456;46.104;12.908;2024-01-10T11:06:13;6.50;99.90
33093;DHT22;19456;46.104;12.908;2024-01-10T11:08:42;6.90;99.90
33093;DHT22;19456;46.104;12.908;2024-01-10T11:14:00;7.30;99.90
33093;DHT22;19456;46.104;12.908;2024-01-10T11:24:26;8.30;99.90
33093;DHT22;19456;46.104;12.908;2024-01-10T11:27:12;8.10;99.90
33093;DHT22;19456;46.104;12.908;2024-01-10T11:29:38;8.70;99.90
33093;DHT22;19456;46.104;12.908;2024-01-10T11:32:14;8.80;98.90
33093;DHT22;19456;46.104;12.908;2024-01-10T11:34:59;9.10;98.10
33093;DHT22;19456;46.104;12.908;2024-01-10T11:37:31;9.50;97.60
33093;DHT22;19456;46.104;12.908;2024-01-10T11:40:05;9.90;96.00
33093;DHT22;19456;46.104;12.908;2024-01-10T11:48:00;10.50;93.70
33093;DHT22;19456;46.104;12.908;2024-01-10T11:50:27;10.40;94.10
33093;DHT22;19456;46.104;12.908;2024-01-10T11:52:53;10.70;93.30
33093;DHT22;19456;46.104;12.908;2024-01-10T11:58:10;10.90;90.70
33093;DHT22;19456;46.104;12.908;2024-01-10T12:00:35;10.60;90.00
33093;DHT22;19456;46.104;12.908;2024-01-10T12:03:01;10.60;90.20
33093;DHT22;19456;46.104;12.908;2024-01-10T12:05:28;11.20;89.20
33093;DHT22;19456;46.104;12.908;2024-01-10T12:07:54;11.50;87.40
33093;DHT22;19456;46.104;12.908;2024-01-10T12:10:20;11.50;85.50
33093;DHT22;19456;46.104;12.908;2024-01-10T12:12:47;11.60;86.30
33093;DHT22;19456;46.104;12.908;2024-01-10T12:15:15;11.80;85.40
33093;DHT22;19456;46.104;12.908;2024-01-10T12:17:40;12.20;85.30
33093;DHT22;19456;46.104;12.908;2024-01-10T12:20:06;12.00;83.90
33093;DHT22;19456;46.104;12.908;2024-01-10T12:22:32;12.10;82.90
33093;DHT22;19456;46.104;12.908;2024-01-10T12:25:03;11.60;83.60
33093;DHT22;19456;46.104;12.908;2024-01-10T12:27:29;12.10;83.30
33093;DHT22;19456;46.104;12.908;2024-01-10T12:29:56;12.40;83.30
33093;DHT22;19456;46.104;12.908;2024-01-10T12:32:21;12.40;80.30
33093;DHT22;19456;46.104;12.908;2024-01-10T12:34:47;12.90;79.50
33093;DHT22;19456;46.104;12.908;2024-01-10T12:37:13;13.00;76.80
33093;DHT22;19456;46.104;12.908;2024-01-10T12:39:39;13.20;75.60
33093;DHT22;19456;46.104;12.908;2024-01-10T12:42:05;13.30;76.10
33093;DHT22;19456;46.104;12.908;2024-01-10T12:44:32;13.50;72.90
33093;DHT22;19456;46.104;12.908;2024-01-10T12:46:57;13.80;71.80
33093;DHT22;19456;46.104;12.908;2024-01-10T12:49:25;15.20;69.70
33093;DHT22;19456;46.104;12.908;2024-01-10T12:51:51;14.10;67.20
33093;DHT22;19456;46.104;12.908;2024-01-10T12:54:17;13.40;68.10
33093;DHT22;19456;46.104;12.908;2024-01-10T12:56:43;13.20;69.70
33093;DHT22;19456;46.104;12.908;2024-01-10T12:59:09;13.10;70.40
33093;DHT22;19456;46.104;12.908;2024-01-10T13:01:35;13.60;70.10
33093;DHT22;19456;46.104;12.908;2024-01-10T13:04:01;14.60;67.90
33093;DHT22;19456;46.104;12.908;2024-01-10T13:06:27;15.20;64.70
33093;DHT22;19456;46.104;12.908;2024-01-10T13:08:53;15.10;63.10
33093;DHT22;19456;46.104;12.908;2024-01-10T13:11:20;15.10;62.30
33093;DHT22;19456;46.104;12.908;2024-01-10T13:13:45;15.00;61.80
33093;DHT22;19456;46.104;12.908;2024-01-10T13:16:11;15.30;62.50
33093;DHT22;19456;46.104;12.908;2024-01-10T13:18:38;15.80;59.40
33093;DHT22;19456;46.104;12.908;2024-01-10T13:21:03;15.90;57.80
33093;DHT22;19456;46.104;12.908;2024-01-10T13:23:29;15.80;59.10
33093;DHT22;19456;46.104;12.908;2024-01-10T13:25:55;15.50;59.50
33093;DHT22;19456;46.104;12.908;2024-01-10T13:28:21;15.10;59.70
33093;DHT22;19456;46.104;12.908;2024-01-10T13:30:46;15.30;57.70
33093;DHT22;19456;46.104;12.908;2024-01-10T13:33:12;16.00;55.60
33093;DHT22;19456;46.104;12.908;2024-01-10T13:35:38;15.50;55.40
33093;DHT22;19456;46.104;12.908;2024-01-10T13:38:04;14.80;55.00
33093;DHT22;19456;46.104;12.908;2024-01-10T13:40:33;15.00;55.40
33093;DHT22;19456;46.104;12.908;2024-01-10T13:42:59;14.40;54.90
33093;DHT22;19456;46.104;12.908;2024-01-10T13:45:28;14.50;54.90
33093;DHT22;19456;46.104;12.908;2024-01-10T13:47:53;14.40;55.30
33093;DHT22;19456;46.104;12.908;2024-01-10T13:50:19;14.10;55.50
33093;DHT22;19456;46.104;12.908;2024-01-10T13:52:45;13.80;55.50
33093;DHT22;19456;46.104;12.908;2024-01-10T13:55:10;13.80;55.70
33093;DHT22;19456;46.104;12.908;2024-01-10T13:57:37;13.40;56.10
33093;DHT22;19456;46.104;12.908;2024-01-10T14:00:03;13.40;56.60
33093;DHT22;19456;46.104;12.908;2024-01-10T14:02:29;12.90;56.70
33093;DHT22;19456;46.104;12.908;2024-01-10T14:04:55;12.40;57.00
33093;DHT22;19456;46.104;12.908;2024-01-10T14:07:23;12.40;57.00
33093;DHT22;19456;46.104;12.908;2024-01-10T14:09:48;11.60;58.30
33093;DHT22;19456;46.104;12.908;2024-01-10T14:12:14;11.40;60.20
33093;DHT22;19456;46.104;12.908;2024-01-10T14:14:40;11.50;59.30
33093;DHT22;19456;46.104;12.908;2024-01-10T14:17:05;12.10;58.50
33093;DHT22;19456;46.104;12.908;2024-01-10T14:19:31;12.00;57.90
33093;DHT22;19456;46.104;12.908;2024-01-10T14:21:59;11.60;57.90
33093;DHT22;19456;46.104;12.908;2024-01-10T14:24:24;11.50;59.00
33093;DHT22;19456;46.104;12.908;2024-01-10T14:26:53;11.00;59.60
33093;DHT22;19456;46.104;12.908;2024-01-10T14:29:20;10.40;60.50
33093;DHT22;19456;46.104;12.908;2024-01-10T14:31:51;10.00;61.70
33093;DHT22;19456;46.104;12.908;2024-01-10T14:34:19;9.70;63.20
33093;DHT22;19456;46.104;12.908;2024-01-10T14:36:46;9.30;63.50
33093;DHT22;19456;46.104;12.908;2024-01-10T14:39:11;9.20;65.30
33093;DHT22;19456;46.104;12.908;2024-01-10T14:41:40;9.00;66.20
33093;DHT22;19456;46.104;12.908;2024-01-10T14:44:06;8.80;67.60
33093;DHT22;19456;46.104;12.908;2024-01-10T14:46:32;8.80;68.20
33093;DHT22;19456;46.104;12.908;2024-01-10T14:52:25;8.50;69.60
33093;DHT22;19456;46.104;12.908;2024-01-10T14:54:54;8.20;72.30
33093;DHT22;19456;46.104;12.908;2024-01-10T14:57:43;7.90;71.90
33093;DHT22;19456;46.104;12.908;2024-01-10T15:00:25;7.70;74.40
33093;DHT22;19456;46.104;12.908;2024-01-10T15:12:04;6.90;81.00
33093;DHT22;19456;46.104;12.908;2024-01-10T15:14:40;6.70;81.10
33093;DHT22;19456;46.104;12.908;2024-01-10T15:17:06;6.60;82.00
33093;DHT22;19456;46.104;12.908;2024-01-10T15:19:39;6.70;81.40
33093;DHT22;19456;46.104;12.908;2024-01-10T15:22:09;6.70;80.40
33093;DHT22;19456;46.104;12.908;2024-01-10T15:24:35;6.50;84.90
33093;DHT22;19456;46.104;12.908;2024-01-10T15:27:01;6.20;85.80
33093;DHT22;19456;46.104;12.908;2024-01-10T15:29:31;6.10;85.00
33093;DHT22;19456;46.104;12.908;2024-01-10T15:31:57;6.10;85.20
33093;DHT22;19456;46.104;12.908;2024-01-10T15:34:22;5.90;87.60
33093;DHT22;19456;46.104;12.908;2024-01-10T15:36:50;5.80;86.70
33093;DHT22;19456;46.104;12.908;2024-01-10T15:39:15;5.80;87.60
33093;DHT22;19456;46.104;12.908;2024-01-10T15:41:41;5.70;89.50
33093;DHT22;19456;46.104;12.908;2024-01-10T15:44:06;5.60;89.80
33093;DHT22;19456;46.104;12.908;2024-01-10T15:46:35;5.50;88.90
33093;DHT22;19456;46.104;12.908;2024-01-10T15:49:01;5.30;89.70
33093;DHT22;19456;46.104;12.908;2024-01-10T15:51:26;5.30;90.40
33093;DHT22;19456;46.104;12.908;2024-01-10T15:53:52;5.20;88.20
33093;DHT22;19456;46.104;12.908;2024-01-10T15:56:23;5.20;87.30